Time;durP1;ratioP1;P1;durP2;ratioP2;P2;SDS_P1;SDS_P2;PMS_P1;PMS_P2;Temp;Humidity;BMP_temperature;BMP_pressure;BME280_temperature;BME280_humidity;BME280_pressure;Samples;Min_cycle;Max_cycle;Signal;HPM_P1;HPM_P2
2021/07/12 00:00:16;;;;;;;20.45;11.38;;;17.10;99.90;;;;;;5024493;28;20052;-83
2021/07/12 00:03:05;;;;;;;18.55;12.05;;;17.00;99.90;;;;;;5024390;28;20052;-84
2021/07/12 00:05:54;;;;;;;17.65;11.90;;;17.00;99.90;;;;;;5023819;28;20502;-84
2021/07/12 00:08:41;;;;;;;14.57;10.68;;;17.00;99.90;;;;;;5024186;28;20077;-84
2021/07/12 00:11:30;;;;;;;14.55;10.00;;;17.00;99.90;;;;;;5024090;28;20073;-85
2021/07/12 00:14:18;;;;;;;13.70;10.10;;;16.90;99.90;;;;;;5045271;28;20045;-84
2021/07/12 00:17:05;;;;;;;17.52;10.05;;;16.90;99.90;;;;;;5043663;28;20044;-85
2021/07/12 00:19:52;;;;;;;15.27;11.85;;;16.90;99.90;;;;;;5044241;28;20053;-85
2021/07/12 00:22:40;;;;;;;15.00;9.98;;;16.90;99.90;;;;;;5058312;28;20049;-85
2021/07/12 00:25:29;;;;;;;19.38;10.30;;;16.90;99.90;;;;;;5059768;28;20041;-83
2021/07/12 00:28:18;;;;;;;14.88;10.45;;;17.00;99.90;;;;;;5044519;28;20466;-85
2021/07/12 00:31:05;;;;;;;16.45;11.30;;;16.90;99.90;;;;;;5043471;28;20052;-85
2021/07/12 00:33:52;;;;;;;18.17;12.15;;;16.90;99.90;;;;;;5018458;28;20049;-82
2021/07/12 00:36:39;;;;;;;21.40;12.13;;;16.90;99.90;;;;;;5045806;28;20076;-83
2021/07/12 00:39:26;;;;;;;17.65;11.43;;;16.90;99.90;;;;;;5019633;28;20106;-83
2021/07/12 00:42:13;;;;;;;19.02;12.20;;;16.90;99.90;;;;;;5020027;28;20556;-83
2021/07/12 00:45:04;;;;;;;23.02;14.65;;;16.90;99.90;;;;;;5020589;28;20120;-84
2021/07/12 00:47:53;;;;;;;24.27;14.00;;;16.90;99.90;;;;;;5034447;28;20079;-83
2021/07/12 00:50:43;;;;;;;24.83;13.07;;;16.90;99.90;;;;;;5033097;28;20531;-83
2021/07/12 00:53:30;;;;;;;20.98;13.10;;;16.80;99.90;;;;;;5033356;28;20049;-83
2021/07/12 00:56:17;;;;;;;23.80;14.75;;;16.80;99.90;;;;;;5019829;28;20533;-83
2021/07/12 00:59:04;;;;;;;31.20;19.10;;;16.80;99.90;;;;;;5020349;28;20048;-84
2021/07/12 01:01:53;;;;;;;29.10;17.55;;;16.80;99.90;;;;;;5020902;28;20076;-83
2021/07/12 01:04:40;;;;;;;30.67;18.35;;;16.80;99.90;;;;;;5033553;28;20041;-84
2021/07/12 01:07:27;;;;;;;31.00;17.63;;;16.80;99.90;;;;;;5020115;28;20396;-83
2021/07/12 01:10:17;;;;;;;28.83;18.17;;;16.80;99.90;;;;;;5034539;28;20045;-84
2021/07/12 01:13:12;;;;;;;;;;;16.80;99.90;;;;;;5020582;28;20038;-83
2021/07/12 01:16:11;;;;;;;29.70;17.15;;;16.80;99.90;;;;;;5019386;28;19921;-83
2021/07/12 01:19:18;;;;;;;30.02;17.83;;;16.70;99.90;;;;;;5019677;28;20120;-84
2021/07/12 01:22:32;;;;;;;34.67;18.77;;;16.70;99.90;;;;;;5019534;28;20128;-83
2021/07/12 01:26:00;;;;;;;27.77;17.63;;;16.60;99.90;;;;;;5020202;28;20556;-84
2021/07/12 01:29:04;;;;;;;27.83;16.02;;;16.60;99.90;;;;;;5034291;28;20045;-84
2021/07/12 01:32:03;;;;;;;27.27;15.93;;;16.60;99.90;;;;;;5021151;28;20128;-84
2021/07/12 01:34:59;;;;;;;29.55;16.45;;;16.60;99.90;;;;;;5033671;28;20125;-85
2021/07/12 01:37:58;;;;;;;24.67;15.73;;;16.60;99.90;;;;;;5033615;28;20125;-82
2021/07/12 01:40:51;;;;;;;24.55;15.00;;;16.60;99.90;;;;;;5021154;28;20047;-83
2021/07/12 01:43:43;;;;;;;25.83;15.57;;;16.60;99.90;;;;;;5020804;28;20045;-84
2021/07/12 01:46:35;;;;;;;32.75;19.10;;;16.50;99.90;;;;;;5019137;28;20050;-84
2021/07/12 01:49:29;;;;;;;34.22;19.02;;;16.50;99.90;;;;;;5019295;28;20050;-82
2021/07/12 01:52:23;;;;;;;34.88;19.67;;;16.40;99.90;;;;;;5034660;28;20052;-84
2021/07/12 01:55:17;;;;;;;34.50;19.50;;;16.40;99.90;;;;;;5033215;28;20136;-83
2021/07/12 01:58:12;;;;;;;31.63;19.00;;;16.50;99.90;;;;;;5032354;28;20041;-83
2021/07/12 02:01:00;;;;;;;30.98;16.88;;;16.50;99.90;;;;;;5015848;28;20052;-84
2021/07/12 02:03:47;;;;;;;32.30;17.23;;;16.40;99.90;;;;;;4999900;28;20052;-83
2021/07/12 02:06:37;;;;;;;28.25;16.15;;;16.40;99.90;;;;;;5014991;28;20049;-85
2021/07/12 02:09:27;;;;;;;26.10;16.80;;;16.50;99.90;;;;;;5013439;28;20342;-84
2021/07/12 02:12:16;;;;;;;28.52;16.55;;;16.50;99.90;;;;;;5013092;28;20417;-84
2021/07/12 02:15:06;;;;;;;28.60;15.30;;;16.50;99.90;;;;;;5039092;28;20053;-82
2021/07/12 02:17:55;;;;;;;28.20;15.85;;;16.50;99.90;;;;;;5052471;28;20521;-83
2021/07/12 02:20:43;;;;;;;31.10;17.63;;;16.50;99.90;;;;;;5038999;28;20051;-82
2021/07/12 02:23:31;;;;;;;25.27;15.55;;;16.40;99.90;;;;;;5053870;28;20802;-82
2021/07/12 02:26:21;;;;;;;27.60;15.68;;;16.30;99.90;;;;;;5039848;28;20124;-82
2021/07/12 02:29:09;;;;;;;31.13;17.00;;;16.30;99.90;;;;;;5038892;28;20049;-85
2021/07/12 02:31:59;;;;;;;33.60;17.75;;;16.30;99.90;;;;;;5038016;28;20136;-84
2021/07/12 02:34:47;;;;;;;31.80;17.52;;;16.30;99.90;;;;;;5019182;28;20042;-83
2021/07/12 02:37:37;;;;;;;27.25;16.38;;;16.30;99.90;;;;;;5033523;28;20137;-83
2021/07/12 02:40:25;;;;;;;32.92;17.85;;;16.30;99.90;;;;;;5020459;28;20041;-84
2021/07/12 02:43:14;;;;;;;24.42;15.80;;;16.30;99.90;;;;;;5020087;28;20042;-85
2021/07/12 02:46:02;;;;;;;30.00;16.25;;;16.30;99.90;;;;;;5035103;28;20430;-83
2021/07/12 02:48:50;;;;;;;29.55;16.77;;;16.30;99.90;;;;;;5020026;28;20050;-84
2021/07/12 02:51:43;;;;;;;30.58;17.95;;;16.20;99.90;;;;;;5035066;28;20052;-83
2021/07/12 02:54:35;;;;;;;26.80;15.15;;;16.20;99.90;;;;;;5019401;28;20042;-83
2021/07/12 02:57:23;;;;;;;27.10;15.65;;;16.20;99.90;;;;;;5020075;28;20483;-85
2021/07/12 03:00:13;;;;;;;29.23;15.57;;;16.20;99.90;;;;;;5034911;28;20124;-84
2021/07/12 03:03:00;;;;;;;30.08;17.30;;;16.20;99.90;;;;;;5033655;28;20128;-85
2021/07/12 03:05:52;;;;;;;29.88;16.08;;;16.10;99.90;;;;;;5020307;28;20045;-84
2021/07/12 03:08:49;;;;;;;27.35;16.23;;;16.10;99.90;;;;;;5018883;28;20045;-85
2021/07/12 03:11:41;;;;;;;25.60;16.02;;;16.10;99.90;;;;;;5036131;28;20081;-84
2021/07/12 03:14:33;;;;;;;33.67;16.10;;;16.20;99.90;;;;;;5040564;28;20154;-84
2021/07/12 03:17:23;;;;;;;29.45;17.05;;;16.10;99.90;;;;;;5056162;28;20421;-84
2021/07/12 03:20:10;;;;;;;;;;;16.10;99.90;;;;;;5053776;28;20083;-85
2021/07/12 03:23:00;;;;;;;32.40;16.23;;;16.10;99.90;;;;;;5041249;28;20010;-84
2021/07/12 03:25:51;;;;;;;32.15;17.05;;;16.10;99.90;;;;;;5055401;28;20051;-85
2021/07/12 03:28:40;;;;;;;31.00;17.48;;;16.20;99.90;;;;;;5057693;28;20047;-83
2021/07/12 03:31:30;;;;;;;25.03;14.73;;;16.20;99.90;;;;;;5043805;28;20048;-85
2021/07/12 03:34:20;;;;;;;30.52;14.82;;;16.10;99.90;;;;;;5019167;28;20661;-85
2021/07/12 03:37:07;;;;;;;22.85;12.57;;;16.20;99.90;;;;;;5004936;28;20052;-85
2021/07/12 03:39:56;;;;;;;28.15;14.88;;;16.20;99.90;;;;;;5003898;28;20056;-84
2021/07/12 03:42:43;;;;;;;23.85;13.68;;;16.10;99.90;;;;;;5032921;28;20054;-83
2021/07/12 03:45:31;;;;;;;24.52;14.90;;;16.20;99.90;;;;;;5003116;28;20088;-83
2021/07/12 03:48:18;;;;;;;26.42;14.48;;;16.20;99.90;;;;;;5028124;28;20422;-83
2021/07/12 03:51:08;;;;;;;20.73;13.32;;;16.20;99.90;;;;;;5014692;28;20128;-83
2021/07/12 03:53:56;;;;;;;27.33;15.15;;;16.20;99.90;;;;;;5000816;28;20384;-83
2021/07/12 03:56:43;;;;;;;22.63;14.23;;;16.30;99.90;;;;;;5014980;28;20060;-83
2021/07/12 03:59:30;;;;;;;28.20;14.55;;;16.30;99.90;;;;;;5027041;28;20056;-83
2021/07/12 04:02:17;;;;;;;25.75;14.63;;;16.30;99.90;;;;;;5015789;28;20046;-83
2021/07/12 04:05:06;;;;;;;22.27;14.10;;;16.40;99.90;;;;;;5015328;28;20042;-84
2021/07/12 04:07:56;;;;;;;27.33;15.23;;;16.50;99.90;;;;;;5015683;28;20052;-82
2021/07/12 04:10:43;;;;;;;27.05;14.85;;;16.50;99.90;;;;;;5000515;28;20289;-83
2021/07/12 04:13:30;;;;;;;33.08;16.77;;;16.60;99.90;;;;;;5048236;28;20043;-83
2021/07/12 04:16:17;;;;;;;35.55;16.00;;;16.60;99.90;;;;;;5040049;28;20422;-83
2021/07/12 04:19:04;;;;;;;30.30;16.13;;;16.70;99.90;;;;;;5040917;28;20123;-83
2021/07/12 04:21:51;;;;;;;36.85;16.05;;;16.80;99.90;;;;;;5038568;28;20055;-83
2021/07/12 04:24:40;;;;;;;33.05;19.48;;;16.90;99.90;;;;;;5041246;28;20045;-84
2021/07/12 04:27:27;;;;;;;34.63;18.65;;;16.70;99.90;;;;;;5054355;28;20041;-82
2021/07/12 04:30:15;;;;;;;32.50;18.30;;;16.60;99.90;;;;;;5054037;28;20055;-83
2021/07/12 04:33:03;;;;;;;34.75;19.13;;;16.60;99.90;;;;;;5029594;28;20054;-84
2021/07/12 04:35:50;;;;;;;32.00;18.38;;;16.60;99.90;;;;;;5020005;28;20064;-83
2021/07/12 04:38:38;;;;;;;31.52;17.75;;;16.60;99.90;;;;;;5033649;28;20055;-84
2021/07/12 04:41:27;;;;;;;32.55;18.65;;;16.80;99.90;;;;;;5019670;28;20058;-84
2021/07/12 04:44:15;;;;;;;26.45;17.27;;;16.90;99.90;;;;;;5019898;28;20045;-84
2021/07/12 04:47:02;;;;;;;38.30;17.98;;;16.80;99.90;;;;;;5019468;28;20049;-83
2021/07/12 04:49:49;;;;;;;34.20;19.17;;;16.60;99.90;;;;;;5034552;28;20172;-83
2021/07/12 04:52:37;;;;;;;37.70;20.70;;;16.50;99.90;;;;;;5021053;28;20049;-83
2021/07/12 04:55:24;;;;;;;30.50;17.83;;;16.40;99.90;;;;;;5035192;28;20411;-83
2021/07/12 04:58:16;;;;;;;35.38;20.70;;;16.60;99.90;;;;;;5020045;28;20568;-83
2021/07/12 05:01:04;;;;;;;30.35;18.83;;;16.70;99.90;;;;;;5019689;28;20658;-83
2021/07/12 05:03:51;;;;;;;33.53;20.00;;;16.80;99.90;;;;;;5033308;28;20041;-83
2021/07/12 05:06:38;;;;;;;33.55;18.50;;;16.90;99.90;;;;;;5034408;28;20050;-83
2021/07/12 05:09:26;;;;;;;39.70;22.23;;;17.10;99.90;;;;;;5019968;28;20059;-83
2021/07/12 05:12:13;;;;;;;45.83;24.23;;;17.30;99.90;;;;;;5039864;28;20055;-83
2021/07/12 05:15:02;;;;;;;52.55;25.48;;;17.40;99.90;;;;;;5053907;28;20055;-84
2021/07/12 05:17:50;;;;;;;37.87;20.93;;;17.50;99.90;;;;;;5054233;28;20143;-84
2021/07/12 05:20:37;;;;;;;40.90;21.85;;;17.70;99.90;;;;;;5038219;28;20271;-84
2021/07/12 05:23:24;;;;;;;38.33;21.42;;;17.70;99.90;;;;;;5038915;28;20476;-83
2021/07/12 05:26:11;;;;;;;35.85;22.08;;;17.80;99.90;;;;;;5053405;28;20425;-84
2021/07/12 05:28:58;;;;;;;35.38;21.77;;;17.90;99.90;;;;;;5053393;28;20048;-84
2021/07/12 05:31:47;;;;;;;32.70;20.55;;;18.00;99.90;;;;;;5038428;28;20045;-83
2021/07/12 05:34:34;;;;;;;35.25;20.15;;;18.00;99.90;;;;;;5035158;23;20046;-85
2021/07/12 05:37:21;;;;;;;27.40;17.20;;;18.00;99.90;;;;;;5036786;28;20053;-82
2021/07/12 05:40:09;;;;;;;30.08;17.50;;;18.00;99.90;;;;;;5037456;28;20052;-84
2021/07/12 05:42:56;;;;;;;27.48;17.35;;;18.00;99.90;;;;;;5037565;28;20584;-86
2021/07/12 05:45:43;;;;;;;27.95;17.45;;;18.00;99.90;;;;;;5062478;28;20044;-86
2021/07/12 05:48:31;;;;;;;33.50;18.92;;;18.00;99.90;;;;;;5070973;28;20049;-82
2021/07/12 05:51:18;;;;;;;37.60;21.75;;;18.00;99.90;;;;;;5076538;28;20040;-86
2021/07/12 05:54:05;;;;;;;44.85;23.60;;;18.10;99.90;;;;;;5084839;28;20052;-86
2021/07/12 05:56:52;;;;;;;45.40;24.02;;;18.10;99.90;;;;;;5070856;28;20047;-84
2021/07/12 05:59:40;;;;;;;42.08;24.55;;;17.80;99.90;;;;;;5070017;28;20074;-84
2021/07/12 06:02:27;;;;;;;40.53;23.95;;;17.90;99.90;;;;;;5071294;28;20120;-86
2021/07/12 06:05:15;;;;;;;36.58;21.73;;;17.90;99.90;;;;;;5070228;28;20506;-84
2021/07/12 06:08:03;;;;;;;44.63;25.15;;;18.10;99.90;;;;;;5057094;28;20055;-86
2021/07/12 06:10:50;;;;;;;39.50;22.83;;;18.20;99.90;;;;;;5070675;28;20040;-85
2021/07/12 06:13:37;;;;;;;40.17;22.13;;;18.30;99.90;;;;;;5069802;28;20049;-84
2021/07/12 06:16:25;;;;;;;39.80;23.75;;;18.60;99.90;;;;;;5071599;28;20512;-84
2021/07/12 06:19:12;;;;;;;38.20;22.95;;;18.60;99.90;;;;;;5071160;28;20130;-84
2021/07/12 06:22:01;;;;;;;38.72;22.83;;;18.80;99.90;;;;;;5071674;28;20526;-84
2021/07/12 06:24:48;;;;;;;35.35;22.52;;;18.90;99.90;;;;;;5072428;28;20044;-84
2021/07/12 06:27:35;;;;;;;38.15;22.63;;;19.00;99.90;;;;;;5057134;28;20049;-86
2021/07/12 06:30:22;;;;;;;37.35;23.10;;;18.90;99.90;;;;;;5072175;28;20425;-84
2021/07/12 06:33:09;;;;;;;36.08;21.45;;;19.20;99.90;;;;;;5045331;28;20483;-84
2021/07/12 06:35:56;;;;;;;34.20;21.42;;;19.50;99.90;;;;;;5037052;28;20037;-84
2021/07/12 06:38:45;;;;;;;34.53;20.55;;;19.70;99.90;;;;;;5051133;28;20112;-84
2021/07/12 06:41:32;;;;;;;34.90;20.85;;;19.80;99.90;;;;;;5035698;28;20045;-84
2021/07/12 06:44:20;;;;;;;32.65;20.63;;;19.90;99.90;;;;;;5038148;28;20056;-85
2021/07/12 06:47:07;;;;;;;34.58;20.55;;;20.10;99.90;;;;;;5036471;28;20057;-85
2021/07/12 06:49:54;;;;;;;34.40;20.95;;;20.20;99.90;;;;;;5036640;28;20052;-85
2021/07/12 06:52:42;;;;;;;24.70;17.70;;;22.10;99.90;;;;;;5036816;28;20132;-83
2021/07/12 06:55:30;;;;;;;31.45;20.67;;;20.20;99.90;;;;;;5036230;28;20056;-86
2021/07/12 06:58:17;;;;;;;31.48;21.40;;;20.30;99.90;;;;;;5036476;28;20045;-85
2021/07/12 07:01:04;;;;;;;34.75;21.23;;;20.20;99.90;;;;;;5037047;28;20041;-84
2021/07/12 07:03:51;;;;;;;34.30;19.38;;;21.80;99.90;;;;;;5038823;28;20049;-84
2021/07/12 07:06:38;;;;;;;32.63;21.25;;;20.20;99.90;;;;;;5041624;28;20045;-84
2021/07/12 07:09:26;;;;;;;37.38;21.48;;;19.90;99.90;;;;;;5040077;28;20128;-86
2021/07/12 07:12:14;;;;;;;35.58;23.23;;;19.70;99.90;;;;;;5046393;28;20048;-83
2021/07/12 07:15:02;;;;;;;37.78;21.77;;;19.60;99.90;;;;;;5060113;28;20507;-84
2021/07/12 07:17:49;;;;;;;32.35;21.80;;;19.70;99.90;;;;;;5073658;28;20553;-84
2021/07/12 07:20:37;;;;;;;32.38;21.20;;;20.00;99.90;;;;;;5060021;28;20520;-85
2021/07/12 07:23:25;;;;;;;31.30;20.35;;;20.30;99.90;;;;;;5060102;28;20131;-85
2021/07/12 07:26:12;;;;;;;30.08;20.17;;;20.60;99.90;;;;;;5060514;28;20044;-84
2021/07/12 07:29:01;;;;;;;28.75;18.17;;;20.70;99.90;;;;;;5060219;28;20048;-84
2021/07/12 07:31:49;;;;;;;33.35;21.25;;;20.90;99.90;;;;;;5060040;28;20560;-84
2021/07/12 07:34:54;;;;;;;36.03;21.63;;;20.80;99.90;;;;;;5042133;28;20525;-85
2021/07/12 07:37:41;;;;;;;31.48;19.08;;;20.80;99.90;;;;;;5038965;28;20045;-86
2021/07/12 07:40:28;;;;;;;32.88;20.58;;;20.90;99.90;;;;;;5038940;28;20436;-83
2021/07/12 07:43:15;;;;;;;34.55;20.65;;;20.90;99.90;;;;;;5039693;28;20048;-84
2021/07/12 07:46:04;;;;;;;32.70;21.02;;;21.10;99.90;;;;;;5054531;28;20464;-85
2021/07/12 07:48:52;;;;;;;37.85;21.10;;;21.30;99.90;;;;;;5040184;28;20565;-85
2021/07/12 07:51:41;;;;;;;33.63;21.80;;;21.40;99.90;;;;;;5040227;28;20295;-84
2021/07/12 07:54:28;;;;;;;32.97;19.45;;;21.60;99.90;;;;;;5039388;28;20055;-83
2021/07/12 07:57:16;;;;;;;33.83;20.77;;;21.80;99.90;;;;;;5039614;28;20049;-84
2021/07/12 08:00:06;;;;;;;33.15;21.13;;;21.90;99.90;;;;;;5039984;28;20123;-87
2021/07/12 08:02:55;;;;;;;33.35;22.02;;;21.70;99.90;;;;;;5039554;28;20051;-84
2021/07/12 08:05:42;;;;;;;29.30;20.33;;;21.60;99.90;;;;;;5039841;28;20072;-86
2021/07/12 08:08:30;;;;;;;32.90;21.42;;;21.70;99.90;;;;;;5039128;28;20048;-86
2021/07/12 08:11:17;;;;;;;33.72;21.40;;;21.60;99.90;;;;;;5039080;28;20055;-85
2021/07/12 08:14:04;;;;;;;30.58;21.13;;;21.50;99.90;;;;;;5039104;28;20124;-85
2021/07/12 08:16:52;;;;;;;31.98;20.58;;;21.60;99.90;;;;;;5039227;28;20052;-87
2021/07/12 08:19:40;;;;;;;30.80;21.15;;;21.80;99.90;;;;;;5052640;28;20175;-85
2021/07/12 08:22:27;;;;;;;35.58;21.00;;;21.80;99.90;;;;;;5052705;28;20127;-84
2021/07/12 08:25:14;;;;;;;30.88;19.10;;;22.00;99.90;;;;;;5053049;28;20051;-84
2021/07/12 08:28:03;;;;;;;35.53;20.85;;;21.90;99.90;;;;;;5052697;28;20055;-85
2021/07/12 08:30:51;;;;;;;38.47;21.40;;;21.90;99.90;;;;;;5052212;28;20049;-84
2021/07/12 08:33:39;;;;;;;30.58;20.65;;;22.00;99.90;;;;;;5068812;28;20080;-85
2021/07/12 08:36:27;;;;;;;31.58;21.40;;;22.00;99.90;;;;;;5072783;28;20047;-86
2021/07/12 08:39:14;;;;;;;31.10;20.92;;;22.00;99.90;;;;;;5072385;28;20131;-87
2021/07/12 08:42:01;;;;;;;35.15;21.42;;;21.90;99.90;;;;;;5072534;28;20123;-85
2021/07/12 08:44:48;;;;;;;31.75;20.92;;;21.90;99.90;;;;;;5072103;28;20055;-86
2021/07/12 08:47:37;;;;;;;29.50;19.60;;;21.80;99.90;;;;;;5074097;28;20040;-87
2021/07/12 08:50:25;;;;;;;33.90;21.75;;;22.00;99.90;;;;;;5073316;28;20045;-87
2021/07/12 08:53:15;;;;;;;29.25;19.55;;;21.60;99.90;;;;;;5074562;28;20041;-84
2021/07/12 08:56:02;;;;;;;26.55;18.48;;;21.60;99.90;;;;;;5074140;28;20041;-87
2021/07/12 08:58:49;;;;;;;30.33;20.58;;;21.70;99.90;;;;;;5073353;28;20045;-86
2021/07/12 09:01:39;;;;;;;22.90;16.80;;;21.70;99.90;;;;;;5074165;28;20127;-88
2021/07/12 09:04:26;;;;;;;27.20;16.60;;;21.80;99.90;;;;;;5073683;28;20048;-88
2021/07/12 09:07:19;;;;;;;24.20;17.10;;;22.00;99.90;;;;;;5073487;28;20049;-85
2021/07/12 09:10:11;;;;;;;27.27;17.25;;;22.00;99.90;;;;;;5074097;28;20623;-88
2021/07/12 09:12:58;;;;;;;23.73;16.55;;;21.80;99.90;;;;;;5061990;28;20105;-88
2021/07/12 09:15:46;;;;;;;24.58;16.10;;;21.90;99.90;;;;;;5040954;28;20045;-88
2021/07/12 09:18:35;;;;;;;22.92;15.27;;;22.20;99.90;;;;;;5041202;28;20060;-87
2021/07/12 09:21:22;;;;;;;22.35;15.77;;;22.40;99.90;;;;;;5040373;28;20041;-85
2021/07/12 09:24:35;;;;;;;22.67;15.43;;;22.40;99.90;;;;;;5041239;28;20072;-87
2021/07/12 09:27:26;;;;;;;23.98;14.55;;;22.30;99.90;;;;;;5055674;28;20510;-89
2021/07/12 09:30:21;;;;;;;19.77;13.98;;;22.30;99.90;;;;;;5040286;28;20088;-87
2021/07/12 09:33:19;;;;;;;19.17;13.30;;;22.30;99.90;;;;;;5067497;28;20557;-88
2021/07/12 09:36:16;;;;;;;17.48;12.50;;;22.30;99.90;;;;;;5075102;28;20056;-87
2021/07/12 09:39:19;;;;;;;17.42;11.57;;;23.60;99.90;;;;;;5076779;28;20047;-85
2021/07/12 09:42:09;;;;;;;11.05;8.00;;;24.30;99.90;;;;;;5075823;28;20128;-87
2021/07/12 09:44:59;;;;;;;12.23;7.68;;;23.00;99.90;;;;;;5060956;28;20076;-85
2021/07/12 09:47:49;;;;;;;12.15;8.02;;;22.70;99.90;;;;;;5056788;28;20047;-85
2021/07/12 09:50:47;;;;;;;10.52;7.50;;;22.90;99.90;;;;;;5071594;28;20048;-84
2021/07/12 09:53:36;;;;;;;11.20;7.32;;;23.10;99.90;;;;;;5057809;28;20048;-84
2021/07/12 09:56:26;;;;;;;10.77;7.35;;;23.20;99.90;;;;;;5056523;28;20070;-86
2021/07/12 09:59:14;;;;;;;10.00;7.00;;;23.40;99.90;;;;;;5056899;28;20037;-84
2021/07/12 10:02:03;;;;;;;8.63;6.15;;;23.50;99.90;;;;;;5056692;28;20048;-86
2021/07/12 10:04:51;;;;;;;;;;;23.50;99.90;;;;;;5056989;28;20048;-84
2021/07/12 10:07:38;;;;;;;8.27;6.32;;;23.60;99.90;;;;;;5071423;28;19920;-85
2021/07/12 10:10:25;;;;;;;7.32;5.55;;;23.80;99.90;;;;;;5056122;28;20127;-84
2021/07/12 10:13:12;;;;;;;8.68;5.53;;;24.00;99.90;;;;;;5042066;28;20055;-86
2021/07/12 10:15:59;;;;;;;6.88;5.38;;;23.90;99.90;;;;;;5036883;28;20049;-85
2021/07/12 10:18:48;;;;;;;7.03;5.15;;;24.00;99.90;;;;;;5051850;28;20045;-85
2021/07/12 10:21:37;;;;;;;5.50;3.90;;;24.10;99.90;;;;;;5037399;28;20422;-85
2021/07/12 10:24:27;;;;;;;7.20;4.47;;;24.20;99.90;;;;;;5036413;28;20049;-84
2021/07/12 10:27:21;;;;;;;5.88;4.30;;;24.20;99.90;;;;;;5052056;28;20068;-85
2021/07/12 10:30:21;;;;;;;6.47;4.68;;;24.20;99.90;;;;;;5037363;28;20583;-84
2021/07/12 10:33:10;;;;;;;7.47;4.00;;;24.40;99.90;;;;;;5049105;28;20433;-84
2021/07/12 10:35:58;;;;;;;5.13;3.85;;;24.70;99.90;;;;;;5057062;28;20120;-86
2021/07/12 10:38:46;;;;;;;6.05;4.28;;;24.80;99.90;;;;;;5058713;28;20040;-85
2021/07/12 10:41:47;;;;;;;5.88;4.25;;;24.90;99.90;;;;;;5061220;28;20048;-88
2021/07/12 10:45:08;;;;;;;7.85;3.75;;;24.80;99.90;;;;;;5074391;28;20049;-85
2021/07/12 10:48:04;;;;;;;5.28;4.03;;;25.20;99.90;;;;;;5075382;28;20078;-84
2021/07/12 10:50:53;;;;;;;5.80;4.13;;;25.40;99.90;;;;;;5061079;28;20170;-82
2021/07/12 10:53:43;;;;;;;6.07;4.00;;;25.30;99.90;;;;;;5074507;28;20041;-84
2021/07/12 10:56:45;;;;;;;5.45;3.90;;;25.50;99.90;;;;;;5060963;28;20044;-84
2021/07/12 10:59:34;;;;;;;4.97;3.38;;;25.60;99.90;;;;;;5061125;28;20501;-84
2021/07/12 11:02:31;;;;;;;5.18;3.40;;;25.70;99.90;;;;;;5060255;28;20049;-89
2021/07/12 11:05:18;;;;;;;4.97;3.42;;;25.90;99.90;;;;;;5059647;28;20036;-86
2021/07/12 11:08:05;;;;;;;5.97;3.42;;;25.90;99.90;;;;;;5060630;28;20048;-87
2021/07/12 11:10:54;;;;;;;4.25;2.80;;;26.00;99.90;;;;;;5073972;28;20128;-84
2021/07/12 11:13:49;;;;;;;3.67;2.83;;;26.10;99.90;;;;;;5041266;28;20049;-87
2021/07/12 11:16:38;;;;;;;4.40;2.75;;;26.00;99.90;;;;;;5040455;28;20071;-85
2021/07/12 11:19:31;;;;;;;4.00;2.45;;;26.10;99.90;;;;;;5041114;28;20085;-84
2021/07/12 11:22:24;;;;;;;3.45;2.63;;;26.00;99.90;;;;;;5040534;28;20049;-87
2021/07/12 11:25:11;;;;;;;4.90;2.53;;;26.10;99.90;;;;;;5055744;28;20048;-86
2021/07/12 11:28:09;;;;;;;3.90;2.67;;;25.90;99.90;;;;;;5054647;28;20510;-83
2021/07/12 11:30:56;;;;;;;4.57;2.23;;;26.00;99.90;;;;;;5041049;28;20092;-85
2021/07/12 11:33:43;;;;;;;3.97;2.85;;;26.00;99.90;;;;;;5057309;28;20044;-87
2021/07/12 11:36:30;;;;;;;3.35;2.55;;;25.90;99.90;;;;;;5123879;22;20505;-87
2021/07/12 11:39:19;;;;;;;4.50;2.80;;;26.00;99.90;;;;;;5060210;28;20134;-88
2021/07/12 11:42:19;;;;;;;4.05;2.72;;;26.00;99.90;;;;;;5061270;28;20050;-88
2021/07/12 11:45:10;;;;;;;4.50;3.13;;;26.00;99.90;;;;;;5065281;28;20082;-90
2021/07/12 11:47:57;;;;;;;7.50;3.30;;;26.00;99.90;;;;;;5081229;28;20135;-90
2021/07/12 11:50:44;;;;;;;3.78;2.85;;;26.20;99.90;;;;;;5081541;28;20849;-90
2021/07/12 11:53:31;;;;;;;4.68;3.35;;;26.00;99.90;;;;;;5080984;28;20131;-89
2021/07/12 11:56:19;;;;;;;5.15;3.45;;;26.10;99.90;;;;;;5081794;28;20290;-90
2021/07/12 11:59:06;;;;;;;5.45;3.45;;;26.10;99.90;;;;;;5081269;28;20048;-91
2021/07/12 12:01:59;;;;;;;8.20;3.70;;;26.20;99.90;;;;;;5096431;28;20051;-88
2021/07/12 12:04:57;;;;;;;5.13;3.90;;;26.40;99.90;;;;;;5081294;28;20054;-91
2021/07/12 12:07:47;;;;;;;6.00;3.63;;;26.70;99.90;;;;;;5080314;28;20036;-88
2021/07/12 12:10:37;;;;;;;;;;;26.70;99.90;;;;;;5082020;28;20528;-89
2021/07/12 12:13:24;;;;;;;5.70;3.70;;;26.60;98.90;;;;;;5095978;28;20022;-88
2021/07/12 12:16:23;;;;;;;6.85;3.78;;;26.60;99.90;;;;;;5099606;28;20040;-89
2021/07/12 12:19:11;;;;;;;5.82;4.03;;;26.70;99.90;;;;;;5101239;28;20048;-88
2021/07/12 12:21:58;;;;;;;4.77;3.67;;;26.40;98.30;;;;;;5115949;28;20049;-90
2021/07/12 12:24:52;;;;;;;5.93;4.40;;;26.20;98.80;;;;;;5115557;28;20286;-90
2021/07/12 12:27:39;;;;;;;5.53;4.55;;;26.20;99.10;;;;;;5100419;28;20512;-88
2021/07/12 12:30:26;;;;;;;5.43;3.85;;;26.20;98.90;;;;;;5100469;28;20058;-90
2021/07/12 12:33:14;;;;;;;4.90;3.83;;;26.50;99.70;;;;;;5088627;28;20048;-89
2021/07/12 12:36:05;;;;;;;4.75;4.00;;;26.80;99.10;;;;;;5080607;28;20044;-90
2021/07/12 12:38:57;;;;;;;5.95;4.18;;;26.90;99.90;;;;;;5080316;28;20040;-91
2021/07/12 12:41:46;;;;;;;5.43;4.38;;;27.40;99.80;;;;;;5095101;28;20052;-88
2021/07/12 12:44:36;;;;;;;;;;;27.70;99.20;;;;;;5081587;28;20040;-91
2021/07/12 12:47:27;;;;;;;5.20;4.18;;;27.60;98.60;;;;;;5080301;28;19942;-88
2021/07/12 12:50:15;;;;;;;5.85;4.65;;;27.50;97.30;;;;;;5079303;28;20047;-88
2021/07/12 12:53:08;;;;;;;6.47;4.32;;;27.60;98.40;;;;;;5080789;28;20050;-88
2021/07/12 12:55:55;;;;;;;5.30;4.20;;;27.50;98.40;;;;;;5095068;28;20126;-91
2021/07/12 12:58:42;;;;;;;6.03;3.78;;;27.40;98.20;;;;;;5079886;28;20047;-89
2021/07/12 13:01:31;;;;;;;5.15;4.03;;;27.10;97.30;;;;;;5079561;28;20044;-90
2021/07/12 13:04:19;;;;;;;5.65;4.50;;;27.10;99.00;;;;;;5093682;28;20040;-91
2021/07/12 13:07:10;;;;;;;5.27;4.10;;;27.30;98.70;;;;;;5078980;28;20489;-89
2021/07/12 13:10:03;;;;;;;4.90;4.03;;;27.10;97.50;;;;;;5079373;28;20036;-89
2021/07/12 13:12:53;;;;;;;6.13;4.55;;;26.70;98.20;;;;;;5090685;28;20501;-88
2021/07/12 13:15:40;;;;;;;5.25;4.07;;;26.90;99.20;;;;;;5099260;28;20040;-89
2021/07/12 13:18:31;;;;;;;5.85;4.05;;;27.20;99.50;;;;;;5114399;28;20398;-89
2021/07/12 13:21:18;;;;;;;5.28;3.97;;;27.50;98.30;;;;;;5099334;28;20132;-88
2021/07/12 13:24:05;;;;;;;5.20;4.13;;;28.00;98.90;;;;;;5100931;28;20565;-90
2021/07/12 13:26:55;;;;;;;5.85;3.95;;;28.20;96.90;;;;;;5099455;28;20047;-89
2021/07/12 13:29:42;;;;;;;4.55;3.97;;;28.10;96.60;;;;;;5099367;28;20047;-90
2021/07/12 13:32:29;;;;;;;5.05;4.15;;;28.00;97.50;;;;;;5093591;28;20130;-90
2021/07/12 13:35:18;;;;;;;5.57;4.20;;;27.90;97.00;;;;;;5078353;28;20063;-88
2021/07/12 13:38:08;;;;;;;6.50;4.25;;;27.80;97.40;;;;;;5078076;28;20044;-89
2021/07/12 13:40:55;;;;;;;6.68;4.10;;;27.80;98.20;;;;;;5079300;28;20112;-89
2021/07/12 13:43:44;;;;;;;6.38;4.47;;;28.10;97.70;;;;;;5079741;28;20119;-90
2021/07/12 13:46:31;;;;;;;5.90;4.28;;;27.70;97.70;;;;;;5079099;28;20044;-90
2021/07/12 13:49:18;;;;;;;4.68;3.97;;;27.40;97.90;;;;;;5094220;28;20043;-89
2021/07/12 13:52:06;;;;;;;6.47;4.20;;;27.40;98.40;;;;;;5079653;28;20052;-90
2021/07/12 13:54:53;;;;;;;5.38;4.30;;;27.40;99.00;;;;;;5078117;28;20048;-90
2021/07/12 13:57:41;;;;;;;7.40;4.47;;;27.50;98.90;;;;;;5078708;28;20051;-90
2021/07/12 14:00:32;;;;;;;6.95;4.50;;;27.00;98.90;;;;;;5078297;28;20134;-89
2021/07/12 14:03:19;;;;;;;6.57;4.75;;;27.20;98.70;;;;;;5091319;28;20048;-91
2021/07/12 14:06:06;;;;;;;6.70;4.82;;;27.30;98.90;;;;;;5078939;28;20512;-89
2021/07/12 14:08:54;;;;;;;5.68;4.57;;;27.40;99.00;;;;;;5092827;28;20127;-90
2021/07/12 14:11:41;;;;;;;6.15;4.63;;;27.50;99.00;;;;;;5080099;28;20483;-89
2021/07/12 14:14:29;;;;;;;6.43;4.72;;;27.50;99.00;;;;;;5112816;28;20074;-91
2021/07/12 14:17:17;;;;;;;6.32;4.35;;;27.70;98.70;;;;;;5100059;28;20075;-91
2021/07/12 14:20:06;;;;;;;6.00;4.55;;;27.70;98.70;;;;;;5099510;28;20058;-89
2021/07/12 14:22:53;;;;;;;5.35;4.15;;;27.70;98.50;;;;;;5099200;28;20052;-88
2021/07/12 14:25:42;;;;;;;6.35;4.57;;;27.60;98.30;;;;;;5098667;28;20089;-90
2021/07/12 14:28:29;;;;;;;;;;;27.50;99.10;;;;;;5098901;28;20046;-91